ZSPD/PVG METAR and TAF weather

Enter ICAO airport designator
Station Type Date Time Source
ZSPD METAR 2019/07/15 20:00 UTC NOAA

ZSPD 152000Z 12004MPS 100V180 9999 BKN013 25/24 Q1007 NOSIG


Station Type Date Time Source
ZSPD Decoded METAR 2019/07/15 20:00 UTC NOAA

Shanghai / Pudong, China (ZSPD) 31-07N 121-46E
Jul 15, 2019 - 04:00 PM EDT / 2019.07.15 2000 UTC
Wind: from the ESE (120 degrees) at 9 MPH (8 KT) (direction variable):0
Visibility: greater than 7 mile(s):0
Sky conditions: mostly cloudy
Temperature: 77 F (25 C)
Dew Point: 75 F (24 C)
Relative Humidity: 94%
Pressure (altimeter): 29.74 in. Hg (1007 hPa)
ob: ZSPD 152000Z 12004MPS 100V180 9999 BKN013 25/24 Q1007 NOSIG
cycle: 20

Station Type Date Time Source
ZSPD TAF 2019/07/15 18:06 UTC NOAA

TAF ZSPD 151515Z 1518/1618 11004MPS 6000 BKN016 TX28/1606Z TN22/1521Z

Example: see airport list